sensor_id;sensor_type;location;lat;lon;timestamp;P1;P2;P0
70691;PMS5003;58267;51.156;17.044;2022-11-28T00:01:31;93;88;
70691;PMS5003;58267;51.156;17.044;2022-11-28T00:03:54;92;84;
70691;PMS5003;58267;51.156;17.044;2022-11-28T00:06:19;96;87;
70691;PMS5003;58267;51.156;17.044;2022-11-28T00:08:45;99;89;
70691;PMS5003;58267;51.156;17.044;2022-11-28T00:11:11;97;90;
70691;PMS5003;58267;51.156;17.044;2022-11-28T00:13:36;97;89;
70691;PMS5003;58267;51.156;17.044;2022-11-28T00:16:03;87;81;
70691;PMS5003;58267;51.156;17.044;2022-11-28T00:18:28;101;90;
70691;PMS5003;58267;51.156;17.044;2022-11-28T00:20:57;99;94;
70691;PMS5003;58267;51.156;17.044;2022-11-28T00:23:18;99;87;
70691;PMS5003;58267;51.156;17.044;2022-11-28T00:25:44;93;86;
70691;PMS5003;58267;51.156;17.044;2022-11-28T00:28:09;99;91;
70691;PMS5003;58267;51.156;17.044;2022-11-28T00:30:35;91;87;
70691;PMS5003;58267;51.156;17.044;2022-11-28T00:33:00;102;91;
70691;PMS5003;58267;51.156;17.044;2022-11-28T00:35:25;109;96;
70691;PMS5003;58267;51.156;17.044;2022-11-28T00:37:50;97;90;
70691;PMS5003;58267;51.156;17.044;2022-11-28T00:40:16;101;91;
70691;PMS5003;58267;51.156;17.044;2022-11-28T00:42:41;98;90;
70691;PMS5003;58267;51.156;17.044;2022-11-28T00:45:07;100;88;
70691;PMS5003;58267;51.156;17.044;2022-11-28T00:47:32;96;86;
70691;PMS5003;58267;51.156;17.044;2022-11-28T00:49:58;92;85;
70691;PMS5003;58267;51.156;17.044;2022-11-28T00:52:23;98;94;
70691;PMS5003;58267;51.156;17.044;2022-11-28T00:54:49;97;86;
70691;PMS5003;58267;51.156;17.044;2022-11-28T00:57:15;89;86;
70691;PMS5003;58267;51.156;17.044;2022-11-28T00:59:40;105;94;
70691;PMS5003;58267;51.156;17.044;2022-11-28T01:02:05;108;98;
70691;PMS5003;58267;51.156;17.044;2022-11-28T01:04:31;101;89;
70691;PMS5003;58267;51.156;17.044;2022-11-28T01:06:56;102;95;
70691;PMS5003;58267;51.156;17.044;2022-11-28T01:09:22;102;93;
70691;PMS5003;58267;51.156;17.044;2022-11-28T01:11:47;100;95;
70691;PMS5003;58267;51.156;17.044;2022-11-28T01:14:12;99;91;
70691;PMS5003;58267;51.156;17.044;2022-11-28T01:16:38;102;91;
70691;PMS5003;58267;51.156;17.044;2022-11-28T01:19:03;119;107;
70691;PMS5003;58267;51.156;17.044;2022-11-28T01:21:28;106;98;
70691;PMS5003;58267;51.156;17.044;2022-11-28T01:23:54;106;97;
70691;PMS5003;58267;51.156;17.044;2022-11-28T01:26:19;116;100;
70691;PMS5003;58267;51.156;17.044;2022-11-28T01:28:44;111;101;
70691;PMS5003;58267;51.156;17.044;2022-11-28T01:31:11;98;92;
70691;PMS5003;58267;51.156;17.044;2022-11-28T01:33:36;108;97;
70691;PMS5003;58267;51.156;17.044;2022-11-28T01:36:02;112;103;
70691;PMS5003;58267;51.156;17.044;2022-11-28T01:38:28;113;103;
70691;PMS5003;58267;51.156;17.044;2022-11-28T01:40:53;119;106;
70691;PMS5003;58267;51.156;17.044;2022-11-28T01:43:18;108;102;
70691;PMS5003;58267;51.156;17.044;2022-11-28T01:45:44;107;99;
70691;PMS5003;58267;51.156;17.044;2022-11-28T01:48:09;106;102;
70691;PMS5003;58267;51.156;17.044;2022-11-28T01:50:34;104;99;
70691;PMS5003;58267;51.156;17.044;2022-11-28T01:53:01;112;102;
70691;PMS5003;58267;51.156;17.044;2022-11-28T01:55:26;121;114;
70691;PMS5003;58267;51.156;17.044;2022-11-28T01:57:51;114;105;
70691;PMS5003;58267;51.156;17.044;2022-11-28T02:00:18;118;106;
70691;PMS5003;58267;51.156;17.044;2022-11-28T02:02:43;114;103;
70691;PMS5003;58267;51.156;17.044;2022-11-28T02:05:08;114;107;
70691;PMS5003;58267;51.156;17.044;2022-11-28T02:07:33;105;99;
70691;PMS5003;58267;51.156;17.044;2022-11-28T02:09:58;121;111;
70691;PMS5003;58267;51.156;17.044;2022-11-28T02:12:27;111;106;
70691;PMS5003;58267;51.156;17.044;2022-11-28T02:14:54;110;105;
70691;PMS5003;58267;51.156;17.044;2022-11-28T02:17:15;112;103;
70691;PMS5003;58267;51.156;17.044;2022-11-28T02:19:51;113;112;
70691;PMS5003;58267;51.156;17.044;2022-11-28T02:22:06;106;104;
70691;PMS5003;58267;51.156;17.044;2022-11-28T02:29:27;116;105;
70691;PMS5003;58267;51.156;17.044;2022-11-28T02:34:15;118;110;
70691;PMS5003;58267;51.156;17.044;2022-11-28T02:36:40;118;106;
70691;PMS5003;58267;51.156;17.044;2022-11-28T02:39:07;122;107;
70691;PMS5003;58267;51.156;17.044;2022-11-28T02:41:32;114;106;
70691;PMS5003;58267;51.156;17.044;2022-11-28T02:43:56;116;111;
70691;PMS5003;58267;51.156;17.044;2022-11-28T02:46:23;111;103;
70691;PMS5003;58267;51.156;17.044;2022-11-28T02:48:48;104;101;
70691;PMS5003;58267;51.156;17.044;2022-11-28T02:51:14;114;108;
70691;PMS5003;58267;51.156;17.044;2022-11-28T02:53:39;111;103;
70691;PMS5003;58267;51.156;17.044;2022-11-28T02:56:04;102;96;
70691;PMS5003;58267;51.156;17.044;2022-11-28T02:58:30;117;106;
70691;PMS5003;58267;51.156;17.044;2022-11-28T03:00:56;112;101;
70691;PMS5003;58267;51.156;17.044;2022-11-28T03:03:24;122;110;
70691;PMS5003;58267;51.156;17.044;2022-11-28T03:05:47;118;107;
70691;PMS5003;58267;51.156;17.044;2022-11-28T03:08:16;112;106;
70691;PMS5003;58267;51.156;17.044;2022-11-28T03:10:39;122;107;
70691;PMS5003;58267;51.156;17.044;2022-11-28T03:13:04;110;102;
70691;PMS5003;58267;51.156;17.044;2022-11-28T03:15:29;129;111;
70691;PMS5003;58267;51.156;17.044;2022-11-28T03:17:56;109;102;
70691;PMS5003;58267;51.156;17.044;2022-11-28T03:20:20;120;106;
70691;PMS5003;58267;51.156;17.044;2022-11-28T03:22:48;113;107;
70691;PMS5003;58267;51.156;17.044;2022-11-28T03:25:12;111;106;
70691;PMS5003;58267;51.156;17.044;2022-11-28T03:27:39;115;105;
70691;PMS5003;58267;51.156;17.044;2022-11-28T03:30:05;105;100;
70691;PMS5003;58267;51.156;17.044;2022-11-28T03:32:29;118;111;
70691;PMS5003;58267;51.156;17.044;2022-11-28T03:34:55;125;112;
70691;PMS5003;58267;51.156;17.044;2022-11-28T03:37:19;106;100;
70691;PMS5003;58267;51.156;17.044;2022-11-28T03:39:46;119;111;
70691;PMS5003;58267;51.156;17.044;2022-11-28T03:42:11;122;114;
70691;PMS5003;58267;51.156;17.044;2022-11-28T03:44:38;120;108;
70691;PMS5003;58267;51.156;17.044;2022-11-28T03:47:01;111;101;
70691;PMS5003;58267;51.156;17.044;2022-11-28T03:49:28;119;112;
70691;PMS5003;58267;51.156;17.044;2022-11-28T03:51:53;134;117;
70691;PMS5003;58267;51.156;17.044;2022-11-28T03:54:18;124;111;
70691;PMS5003;58267;51.156;17.044;2022-11-28T03:56:44;116;109;
70691;PMS5003;58267;51.156;17.044;2022-11-28T03:59:09;124;109;
70691;PMS5003;58267;51.156;17.044;2022-11-28T04:01:35;121;106;
70691;PMS5003;58267;51.156;17.044;2022-11-28T04:04:04;120;111;
70691;PMS5003;58267;51.156;17.044;2022-11-28T04:06:25;117;103;
70691;PMS5003;58267;51.156;17.044;2022-11-28T04:08:51;116;109;
70691;PMS5003;58267;51.156;17.044;2022-11-28T04:11:17;97;81;
70691;PMS5003;58267;51.156;17.044;2022-11-28T04:13:41;126;111;
70691;PMS5003;58267;51.156;17.044;2022-11-28T04:16:08;109;104;
70691;PMS5003;58267;51.156;17.044;2022-11-28T04:18:34;126;116;
70691;PMS5003;58267;51.156;17.044;2022-11-28T04:20:58;117;104;
70691;PMS5003;58267;51.156;17.044;2022-11-28T04:23:23;125;114;
70691;PMS5003;58267;51.156;17.044;2022-11-28T04:25:50;136;113;
70691;PMS5003;58267;51.156;17.044;2022-11-28T04:28:14;121;106;
70691;PMS5003;58267;51.156;17.044;2022-11-28T04:30:39;128;112;
70691;PMS5003;58267;51.156;17.044;2022-11-28T04:33:05;117;108;
70691;PMS5003;58267;51.156;17.044;2022-11-28T04:35:30;112;100;
70691;PMS5003;58267;51.156;17.044;2022-11-28T04:37:55;125;111;
70691;PMS5003;58267;51.156;17.044;2022-11-28T04:40:21;110;106;
70691;PMS5003;58267;51.156;17.044;2022-11-28T04:42:46;120;113;
70691;PMS5003;58267;51.156;17.044;2022-11-28T04:45:13;123;113;
70691;PMS5003;58267;51.156;17.044;2022-11-28T04:47:37;117;108;
70691;PMS5003;58267;51.156;17.044;2022-11-28T04:50:03;119;109;
70691;PMS5003;58267;51.156;17.044;2022-11-28T04:52:30;121;110;
70691;PMS5003;58267;51.156;17.044;2022-11-28T04:54:56;111;108;
70691;PMS5003;58267;51.156;17.044;2022-11-28T04:57:20;125;115;
70691;PMS5003;58267;51.156;17.044;2022-11-28T04:59:44;128;113;
70691;PMS5003;58267;51.156;17.044;2022-11-28T05:02:10;125;111;
70691;PMS5003;58267;51.156;17.044;2022-11-28T05:04:35;127;114;
70691;PMS5003;58267;51.156;17.044;2022-11-28T05:07:00;127;118;
70691;PMS5003;58267;51.156;17.044;2022-11-28T05:09:26;126;117;
70691;PMS5003;58267;51.156;17.044;2022-11-28T05:11:51;124;111;
70691;PMS5003;58267;51.156;17.044;2022-11-28T05:14:17;113;107;
70691;PMS5003;58267;51.156;17.044;2022-11-28T05:16:42;122;114;
70691;PMS5003;58267;51.156;17.044;2022-11-28T05:19:08;125;108;
70691;PMS5003;58267;51.156;17.044;2022-11-28T05:21:34;122;112;
70691;PMS5003;58267;51.156;17.044;2022-11-28T05:23:59;132;124;
70691;PMS5003;58267;51.156;17.044;2022-11-28T05:26:24;126;114;
70691;PMS5003;58267;51.156;17.044;2022-11-28T05:28:50;120;110;
70691;PMS5003;58267;51.156;17.044;2022-11-28T05:31:16;107;94;
70691;PMS5003;58267;51.156;17.044;2022-11-28T05:33:42;114;108;
70691;PMS5003;58267;51.156;17.044;2022-11-28T05:36:08;123;108;
70691;PMS5003;58267;51.156;17.044;2022-11-28T05:38:32;117;109;
70691;PMS5003;58267;51.156;17.044;2022-11-28T05:40:57;128;117;
70691;PMS5003;58267;51.156;17.044;2022-11-28T05:43:23;115;109;
70691;PMS5003;58267;51.156;17.044;2022-11-28T05:45:48;117;108;
70691;PMS5003;58267;51.156;17.044;2022-11-28T05:48:14;129;117;
70691;PMS5003;58267;51.156;17.044;2022-11-28T05:50:40;131;117;
70691;PMS5003;58267;51.156;17.044;2022-11-28T05:53:05;135;115;
70691;PMS5003;58267;51.156;17.044;2022-11-28T05:55:31;126;108;
70691;PMS5003;58267;51.156;17.044;2022-11-28T05:57:57;122;111;
70691;PMS5003;58267;51.156;17.044;2022-11-28T06:00:23;128;121;
70691;PMS5003;58267;51.156;17.044;2022-11-28T06:02:48;128;115;
70691;PMS5003;58267;51.156;17.044;2022-11-28T06:05:14;120;111;
70691;PMS5003;58267;51.156;17.044;2022-11-28T06:07:39;140;121;
70691;PMS5003;58267;51.156;17.044;2022-11-28T06:10:05;136;125;
70691;PMS5003;58267;51.156;17.044;2022-11-28T06:12:30;141;126;
70691;PMS5003;58267;51.156;17.044;2022-11-28T06:14:55;131;128;
70691;PMS5003;58267;51.156;17.044;2022-11-28T06:17:21;132;120;
70691;PMS5003;58267;51.156;17.044;2022-11-28T06:19:46;142;126;
70691;PMS5003;58267;51.156;17.044;2022-11-28T06:22:16;108;104;
70691;PMS5003;58267;51.156;17.044;2022-11-28T06:24:41;128;118;
70691;PMS5003;58267;51.156;17.044;2022-11-28T06:27:07;131;117;
70691;PMS5003;58267;51.156;17.044;2022-11-28T06:29:33;132;120;
70691;PMS5003;58267;51.156;17.044;2022-11-28T06:31:58;125;110;
70691;PMS5003;58267;51.156;17.044;2022-11-28T06:34:23;126;111;
70691;PMS5003;58267;51.156;17.044;2022-11-28T06:36:48;129;109;
70691;PMS5003;58267;51.156;17.044;2022-11-28T06:39:15;120;109;
70691;PMS5003;58267;51.156;17.044;2022-11-28T06:41:41;127;113;
70691;PMS5003;58267;51.156;17.044;2022-11-28T06:44:06;127;116;
70691;PMS5003;58267;51.156;17.044;2022-11-28T06:46:31;136;115;
70691;PMS5003;58267;51.156;17.044;2022-11-28T06:48:57;138;118;
70691;PMS5003;58267;51.156;17.044;2022-11-28T06:51:26;91;79;
70691;PMS5003;58267;51.156;17.044;2022-11-28T06:53:52;135;122;
70691;PMS5003;58267;51.156;17.044;2022-11-28T06:56:18;130;114;
70691;PMS5003;58267;51.156;17.044;2022-11-28T06:58:45;128;114;
70691;PMS5003;58267;51.156;17.044;2022-11-28T07:01:11;135;116;
70691;PMS5003;58267;51.156;17.044;2022-11-28T07:03:36;131;114;
70691;PMS5003;58267;51.156;17.044;2022-11-28T07:06:02;129;114;
70691;PMS5003;58267;51.156;17.044;2022-11-28T07:08:27;123;116;
70691;PMS5003;58267;51.156;17.044;2022-11-28T07:10:53;132;119;
70691;PMS5003;58267;51.156;17.044;2022-11-28T07:13:19;132;120;
70691;PMS5003;58267;51.156;17.044;2022-11-28T07:15:47;129;109;
70691;PMS5003;58267;51.156;17.044;2022-11-28T07:18:10;139;128;
70691;PMS5003;58267;51.156;17.044;2022-11-28T07:20:35;139;123;
70691;PMS5003;58267;51.156;17.044;2022-11-28T07:23:01;133;119;
70691;PMS5003;58267;51.156;17.044;2022-11-28T07:25:26;130;115;
70691;PMS5003;58267;51.156;17.044;2022-11-28T07:27:55;121;112;
70691;PMS5003;58267;51.156;17.044;2022-11-28T07:30:20;130;118;
70691;PMS5003;58267;51.156;17.044;2022-11-28T07:32:45;138;123;
70691;PMS5003;58267;51.156;17.044;2022-11-28T07:35:11;137;123;
70691;PMS5003;58267;51.156;17.044;2022-11-28T07:37:37;139;118;
70691;PMS5003;58267;51.156;17.044;2022-11-28T07:40:02;140;118;
70691;PMS5003;58267;51.156;17.044;2022-11-28T07:42:28;126;117;
70691;PMS5003;58267;51.156;17.044;2022-11-28T07:44:53;137;128;
70691;PMS5003;58267;51.156;17.044;2022-11-28T07:47:19;145;122;
70691;PMS5003;58267;51.156;17.044;2022-11-28T07:49:45;135;123;
70691;PMS5003;58267;51.156;17.044;2022-11-28T07:52:10;129;117;
70691;PMS5003;58267;51.156;17.044;2022-11-28T07:54:35;141;126;
70691;PMS5003;58267;51.156;17.044;2022-11-28T07:57:01;145;131;
70691;PMS5003;58267;51.156;17.044;2022-11-28T07:59:26;138;122;
70691;PMS5003;58267;51.156;17.044;2022-11-28T08:01:51;134;123;
70691;PMS5003;58267;51.156;17.044;2022-11-28T08:04:16;139;126;
70691;PMS5003;58267;51.156;17.044;2022-11-28T08:06:42;131;118;
70691;PMS5003;58267;51.156;17.044;2022-11-28T08:09:08;149;128;
70691;PMS5003;58267;51.156;17.044;2022-11-28T08:11:33;140;128;
70691;PMS5003;58267;51.156;17.044;2022-11-28T08:13:58;149;129;
70691;PMS5003;58267;51.156;17.044;2022-11-28T08:16:25;140;130;
70691;PMS5003;58267;51.156;17.044;2022-11-28T08:18:49;133;123;
70691;PMS5003;58267;51.156;17.044;2022-11-28T08:21:15;140;132;
70691;PMS5003;58267;51.156;17.044;2022-11-28T08:23:40;142;131;
70691;PMS5003;58267;51.156;17.044;2022-11-28T08:26:08;139;129;
70691;PMS5003;58267;51.156;17.044;2022-11-28T08:28:32;134;119;
70691;PMS5003;58267;51.156;17.044;2022-11-28T08:30:57;130;122;
70691;PMS5003;58267;51.156;17.044;2022-11-28T08:33:23;135;124;
70691;PMS5003;58267;51.156;17.044;2022-11-28T08:35:48;122;115;
70691;PMS5003;58267;51.156;17.044;2022-11-28T08:38:14;125;113;
70691;PMS5003;58267;51.156;17.044;2022-11-28T08:40:39;122;113;
70691;PMS5003;58267;51.156;17.044;2022-11-28T08:43:04;125;114;
70691;PMS5003;58267;51.156;17.044;2022-11-28T08:45:30;123;113;
70691;PMS5003;58267;51.156;17.044;2022-11-28T08:47:55;123;116;
70691;PMS5003;58267;51.156;17.044;2022-11-28T08:50:20;122;109;
70691;PMS5003;58267;51.156;17.044;2022-11-28T08:52:47;120;110;
70691;PMS5003;58267;51.156;17.044;2022-11-28T08:55:13;111;103;
70691;PMS5003;58267;51.156;17.044;2022-11-28T08:57:38;123;112;
70691;PMS5003;58267;51.156;17.044;2022-11-28T09:00:04;121;105;
70691;PMS5003;58267;51.156;17.044;2022-11-28T09:02:29;115;110;
70691;PMS5003;58267;51.156;17.044;2022-11-28T09:04:55;112;107;
70691;PMS5003;58267;51.156;17.044;2022-11-28T09:07:20;117;107;
70691;PMS5003;58267;51.156;17.044;2022-11-28T09:09:46;119;106;
70691;PMS5003;58267;51.156;17.044;2022-11-28T09:12:11;111;106;
70691;PMS5003;58267;51.156;17.044;2022-11-28T09:14:36;127;112;
70691;PMS5003;58267;51.156;17.044;2022-11-28T09:17:02;127;117;
70691;PMS5003;58267;51.156;17.044;2022-11-28T09:19:28;116;110;
70691;PMS5003;58267;51.156;17.044;2022-11-28T09:21:53;117;103;
70691;PMS5003;58267;51.156;17.044;2022-11-28T09:24:19;125;114;
70691;PMS5003;58267;51.156;17.044;2022-11-28T09:26:44;112;110;
70691;PMS5003;58267;51.156;17.044;2022-11-28T09:29:09;129;114;
70691;PMS5003;58267;51.156;17.044;2022-11-28T09:31:35;120;108;
70691;PMS5003;58267;51.156;17.044;2022-11-28T09:34:00;120;112;
70691;PMS5003;58267;51.156;17.044;2022-11-28T09:36:25;120;109;
70691;PMS5003;58267;51.156;17.044;2022-11-28T09:38:50;113;105;
70691;PMS5003;58267;51.156;17.044;2022-11-28T09:43:41;114;103;
70691;PMS5003;58267;51.156;17.044;2022-11-28T09:46:06;109;101;
70691;PMS5003;58267;51.156;17.044;2022-11-28T09:48:32;113;104;
70691;PMS5003;58267;51.156;17.044;2022-11-28T09:50:58;113;108;
70691;PMS5003;58267;51.156;17.044;2022-11-28T09:53:22;110;104;
70691;PMS5003;58267;51.156;17.044;2022-11-28T09:55:48;115;102;
70691;PMS5003;58267;51.156;17.044;2022-11-28T09:58:14;125;109;
70691;PMS5003;58267;51.156;17.044;2022-11-28T10:00:40;111;104;
70691;PMS5003;58267;51.156;17.044;2022-11-28T10:03:12;105;96;
70691;PMS5003;58267;51.156;17.044;2022-11-28T10:05:31;100;99;
70691;PMS5003;58267;51.156;17.044;2022-11-28T10:07:59;104;98;
70691;PMS5003;58267;51.156;17.044;2022-11-28T10:10:22;103;92;
70691;PMS5003;58267;51.156;17.044;2022-11-28T10:12:47;100;93;
70691;PMS5003;58267;51.156;17.044;2022-11-28T10:15:18;101;95;
70691;PMS5003;58267;51.156;17.044;2022-11-28T10:17:40;104;93;
70691;PMS5003;58267;51.156;17.044;2022-11-28T10:20:03;113;101;
70691;PMS5003;58267;51.156;17.044;2022-11-28T10:22:30;76;76;
70691;PMS5003;58267;51.156;17.044;2022-11-28T10:24:54;96;92;
70691;PMS5003;58267;51.156;17.044;2022-11-28T10:27:18;95;89;
70691;PMS5003;58267;51.156;17.044;2022-11-28T10:29:44;101;95;
70691;PMS5003;58267;51.156;17.044;2022-11-28T10:32:10;99;96;
70691;PMS5003;58267;51.156;17.044;2022-11-28T10:34:37;96;90;
70691;PMS5003;58267;51.156;17.044;2022-11-28T10:37:02;100;93;
70691;PMS5003;58267;51.156;17.044;2022-11-28T10:39:27;97;91;
70691;PMS5003;58267;51.156;17.044;2022-11-28T10:41:55;88;86;
70691;PMS5003;58267;51.156;17.044;2022-11-28T10:44:19;97;89;
70691;PMS5003;58267;51.156;17.044;2022-11-28T10:46:47;97;90;
70691;PMS5003;58267;51.156;17.044;2022-11-28T10:49:15;93;86;
70691;PMS5003;58267;51.156;17.044;2022-11-28T10:51:39;84;79;
70691;PMS5003;58267;51.156;17.044;2022-11-28T10:54:05;93;85;
70691;PMS5003;58267;51.156;17.044;2022-11-28T10:56:30;87;81;
70691;PMS5003;58267;51.156;17.044;2022-11-28T10:58:54;85;76;
70691;PMS5003;58267;51.156;17.044;2022-11-28T11:01:18;95;87;
70691;PMS5003;58267;51.156;17.044;2022-11-28T11:03:44;88;82;
70691;PMS5003;58267;51.156;17.044;2022-11-28T11:06:09;87;81;
70691;PMS5003;58267;51.156;17.044;2022-11-28T11:08:35;95;84;
70691;PMS5003;58267;51.156;17.044;2022-11-28T11:11:00;90;84;
70691;PMS5003;58267;51.156;17.044;2022-11-28T11:13:26;84;77;
70691;PMS5003;58267;51.156;17.044;2022-11-28T11:15:52;87;81;
70691;PMS5003;58267;51.156;17.044;2022-11-28T11:18:19;83;82;
70691;PMS5003;58267;51.156;17.044;2022-11-28T11:20:42;80;75;
70691;PMS5003;58267;51.156;17.044;2022-11-28T11:23:11;87;81;
70691;PMS5003;58267;51.156;17.044;2022-11-28T11:25:33;83;78;
70691;PMS5003;58267;51.156;17.044;2022-11-28T11:27:58;84;78;
70691;PMS5003;58267;51.156;17.044;2022-11-28T11:30:25;81;76;
70691;PMS5003;58267;51.156;17.044;2022-11-28T11:32:49;80;73;
70691;PMS5003;58267;51.156;17.044;2022-11-28T11:35:16;79;72;
70691;PMS5003;58267;51.156;17.044;2022-11-28T11:37:39;75;67;
70691;PMS5003;58267;51.156;17.044;2022-11-28T11:40:16;70;64;
70691;PMS5003;58267;51.156;17.044;2022-11-28T11:42:31;81;71;
70691;PMS5003;58267;51.156;17.044;2022-11-28T11:44:56;71;69;
70691;PMS5003;58267;51.156;17.044;2022-11-28T11:49:47;72;67;
70691;PMS5003;58267;51.156;17.044;2022-11-28T11:52:14;71;67;
70691;PMS5003;58267;51.156;17.044;2022-11-28T11:54:37;66;60;
70691;PMS5003;58267;51.156;17.044;2022-11-28T11:57:02;61;60;
70691;PMS5003;58267;51.156;17.044;2022-11-28T11:59:29;67;63;
70691;PMS5003;58267;51.156;17.044;2022-11-28T12:01:55;74;67;
70691;PMS5003;58267;51.156;17.044;2022-11-28T12:04:20;61;60;
70691;PMS5003;58267;51.156;17.044;2022-11-28T12:06:45;66;61;
70691;PMS5003;58267;51.156;17.044;2022-11-28T12:09:22;53;47;
70691;PMS5003;58267;51.156;17.044;2022-11-28T12:11:35;63;58;
70691;PMS5003;58267;51.156;17.044;2022-11-28T12:14:03;55;54;
70691;PMS5003;58267;51.156;17.044;2022-11-28T12:16:32;61;57;
70691;PMS5003;58267;51.156;17.044;2022-11-28T12:18:53;56;52;
70691;PMS5003;58267;51.156;17.044;2022-11-28T12:21:18;62;55;
70691;PMS5003;58267;51.156;17.044;2022-11-28T12:23:46;52;49;
70691;PMS5003;58267;51.156;17.044;2022-11-28T12:26:11;58;52;
70691;PMS5003;58267;51.156;17.044;2022-11-28T12:28:38;54;49;
70691;PMS5003;58267;51.156;17.044;2022-11-28T12:31:01;59;54;
70691;PMS5003;58267;51.156;17.044;2022-11-28T12:33:30;63;58;
70691;PMS5003;58267;51.156;17.044;2022-11-28T12:35:53;54;51;
70691;PMS5003;58267;51.156;17.044;2022-11-28T12:38:21;55;51;
70691;PMS5003;58267;51.156;17.044;2022-11-28T12:40:45;51;51;
70691;PMS5003;58267;51.156;17.044;2022-11-28T12:43:11;50;47;
70691;PMS5003;58267;51.156;17.044;2022-11-28T12:45:34;51;44;
70691;PMS5003;58267;51.156;17.044;2022-11-28T12:48:01;59;53;
70691;PMS5003;58267;51.156;17.044;2022-11-28T12:50:26;53;50;
70691;PMS5003;58267;51.156;17.044;2022-11-28T12:52:50;55;53;
70691;PMS5003;58267;51.156;17.044;2022-11-28T12:55:19;50;48;
70691;PMS5003;58267;51.156;17.044;2022-11-28T12:57:41;54;50;
70691;PMS5003;58267;51.156;17.044;2022-11-28T13:00:07;61;52;
70691;PMS5003;58267;51.156;17.044;2022-11-28T13:02:32;56;51;
70691;PMS5003;58267;51.156;17.044;2022-11-28T13:05:01;50;49;
70691;PMS5003;58267;51.156;17.044;2022-11-28T13:07:23;53;48;
70691;PMS5003;58267;51.156;17.044;2022-11-28T13:09:52;52;49;
70691;PMS5003;58267;51.156;17.044;2022-11-28T13:12:16;54;52;
70691;PMS5003;58267;51.156;17.044;2022-11-28T13:14:39;57;54;
70691;PMS5003;58267;51.156;17.044;2022-11-28T13:17:05;53;52;
70691;PMS5003;58267;51.156;17.044;2022-11-28T13:19:30;48;45;
70691;PMS5003;58267;51.156;17.044;2022-11-28T13:21:54;53;49;
70691;PMS5003;58267;51.156;17.044;2022-11-28T13:24:21;57;55;
70691;PMS5003;58267;51.156;17.044;2022-11-28T13:26:45;56;53;
70691;PMS5003;58267;51.156;17.044;2022-11-28T13:29:12;53;52;
70691;PMS5003;58267;51.156;17.044;2022-11-28T13:31:36;52;49;
70691;PMS5003;58267;51.156;17.044;2022-11-28T13:34:01;45;41;
70691;PMS5003;58267;51.156;17.044;2022-11-28T13:36:29;52;48;
70691;PMS5003;58267;51.156;17.044;2022-11-28T13:38:52;59;54;
70691;PMS5003;58267;51.156;17.044;2022-11-28T13:41:18;50;47;
70691;PMS5003;58267;51.156;17.044;2022-11-28T13:43:43;46;42;
70691;PMS5003;58267;51.156;17.044;2022-11-28T13:46:08;46;42;
70691;PMS5003;58267;51.156;17.044;2022-11-28T13:50:59;53;51;
70691;PMS5003;58267;51.156;17.044;2022-11-28T13:53:25;49;44;
70691;PMS5003;58267;51.156;17.044;2022-11-28T13:55:51;52;47;
70691;PMS5003;58267;51.156;17.044;2022-11-28T13:58:16;45;41;
70691;PMS5003;58267;51.156;17.044;2022-11-28T14:00:41;45;41;
70691;PMS5003;58267;51.156;17.044;2022-11-28T14:03:13;46;44;
70691;PMS5003;58267;51.156;17.044;2022-11-28T14:05:33;49;48;
70691;PMS5003;58267;51.156;17.044;2022-11-28T14:07:57;49;44;
70691;PMS5003;58267;51.156;17.044;2022-11-28T14:10:27;50;46;
70691;PMS5003;58267;51.156;17.044;2022-11-28T14:12:52;48;43;
70691;PMS5003;58267;51.156;17.044;2022-11-28T14:15:19;45;41;
70691;PMS5003;58267;51.156;17.044;2022-11-28T14:17:46;52;48;
70691;PMS5003;58267;51.156;17.044;2022-11-28T14:22:35;50;48;
70691;PMS5003;58267;51.156;17.044;2022-11-28T14:24:58;52;48;
70691;PMS5003;58267;51.156;17.044;2022-11-28T14:27:24;50;46;
70691;PMS5003;58267;51.156;17.044;2022-11-28T14:29:49;48;44;
70691;PMS5003;58267;51.156;17.044;2022-11-28T14:34:40;51;46;
70691;PMS5003;58267;51.156;17.044;2022-11-28T14:39:31;48;45;
70691;PMS5003;58267;51.156;17.044;2022-11-28T14:54:03;51;49;
70691;PMS5003;58267;51.156;17.044;2022-11-28T14:56:28;49;47;
70691;PMS5003;58267;51.156;17.044;2022-11-28T14:58:56;50;45;
70691;PMS5003;58267;51.156;17.044;2022-11-28T15:01:21;55;47;
70691;PMS5003;58267;51.156;17.044;2022-11-28T15:03:45;57;52;
70691;PMS5003;58267;51.156;17.044;2022-11-28T15:06:10;48;47;
70691;PMS5003;58267;51.156;17.044;2022-11-28T15:08:41;48;43;
70691;PMS5003;58267;51.156;17.044;2022-11-28T15:11:05;49;48;
70691;PMS5003;58267;51.156;17.044;2022-11-28T15:13:30;50;45;
70691;PMS5003;58267;51.156;17.044;2022-11-28T15:15:51;55;52;
70691;PMS5003;58267;51.156;17.044;2022-11-28T15:18:17;57;54;
70691;PMS5003;58267;51.156;17.044;2022-11-28T15:20:43;53;47;
70691;PMS5003;58267;51.156;17.044;2022-11-28T15:25:34;56;52;
70691;PMS5003;58267;51.156;17.044;2022-11-28T15:30:25;62;58;
70691;PMS5003;58267;51.156;17.044;2022-11-28T15:32:51;61;58;
70691;PMS5003;58267;51.156;17.044;2022-11-28T15:35:16;62;54;
70691;PMS5003;58267;51.156;17.044;2022-11-28T15:37:45;57;54;
70691;PMS5003;58267;51.156;17.044;2022-11-28T15:42:32;65;58;
70691;PMS5003;58267;51.156;17.044;2022-11-28T15:44:59;60;57;
70691;PMS5003;58267;51.156;17.044;2022-11-28T15:47:22;63;61;
70691;PMS5003;58267;51.156;17.044;2022-11-28T15:52:14;66;61;
70691;PMS5003;58267;51.156;17.044;2022-11-28T15:54:40;63;57;
70691;PMS5003;58267;51.156;17.044;2022-11-28T15:57:04;72;64;
70691;PMS5003;58267;51.156;17.044;2022-11-28T15:59:30;68;66;
70691;PMS5003;58267;51.156;17.044;2022-11-28T16:01:55;75;69;
70691;PMS5003;58267;51.156;17.044;2022-11-28T16:04:20;74;67;
70691;PMS5003;58267;51.156;17.044;2022-11-28T16:06:48;82;75;
70691;PMS5003;58267;51.156;17.044;2022-11-28T16:11:36;77;72;
70691;PMS5003;58267;51.156;17.044;2022-11-28T16:14:05;73;68;
70691;PMS5003;58267;51.156;17.044;2022-11-28T16:16:28;74;68;
70691;PMS5003;58267;51.156;17.044;2022-11-28T16:18:54;73;70;